Time;durP1;ratioP1;P1;durP2;ratioP2;P2;SDS_P1;SDS_P2;PMS_P1;PMS_P2;Temp;Humidity;BMP_temperature;BMP_pressure;BME280_temperature;BME280_humidity;BME280_pressure;Samples;Min_cycle;Max_cycle;Signal;HPM_P1;HPM_P2
2022/09/25 00:00:53;;;;;;;4.67;4.20;;;11.90;99.90;;;;;;5051080;28;20212;-68
2022/09/25 00:03:23;;;;;;;5.65;4.88;;;11.80;99.90;;;;;;5050828;28;20487;-68
2022/09/25 00:05:50;;;;;;;5.72;4.40;;;11.80;99.90;;;;;;5051326;28;20698;-68
2022/09/25 00:08:18;;;;;;;4.60;4.20;;;11.80;99.90;;;;;;5051252;28;20205;-68
2022/09/25 00:10:48;;;;;;;4.80;4.27;;;11.80;99.90;;;;;;5050809;28;20824;-68
2022/09/25 00:13:15;;;;;;;5.03;3.97;;;11.80;99.90;;;;;;5050543;28;20937;-68
2022/09/25 00:15:46;;;;;;;5.57;4.40;;;11.80;99.90;;;;;;5050987;28;20228;-68
2022/09/25 00:18:14;;;;;;;4.20;3.67;;;11.80;99.90;;;;;;5096054;22;20210;-95
2022/09/25 00:20:41;;;;;;;5.50;4.27;;;11.80;99.90;;;;;;5078475;28;20306;-92
2022/09/25 00:23:08;;;;;;;5.07;4.57;;;11.80;99.90;;;;;;5077603;28;20440;-92
2022/09/25 00:25:35;;;;;;;6.27;4.90;;;11.80;99.90;;;;;;5076762;28;20460;-93
2022/09/25 00:28:05;;;;;;;5.10;4.60;;;11.70;99.90;;;;;;5069661;28;20476;-94
2022/09/25 00:30:31;;;;;;;6.40;4.75;;;11.70;99.90;;;;;;5066330;28;20541;-93
2022/09/25 00:32:58;;;;;;;5.75;5.15;;;11.70;99.90;;;;;;5076009;28;20184;-92
2022/09/25 00:35:25;;;;;;;6.25;5.15;;;11.70;99.90;;;;;;5077296;28;20218;-94
2022/09/25 00:37:53;;;;;;;5.65;5.10;;;11.70;99.90;;;;;;5072614;28;20226;-93
2022/09/25 00:40:20;;;;;;;6.68;5.57;;;11.70;99.90;;;;;;5065448;28;20205;-93
2022/09/25 00:42:47;;;;;;;7.97;5.77;;;11.70;99.90;;;;;;5064084;28;20217;-93
2022/09/25 00:45:21;;;;;;;6.53;5.50;;;11.70;99.90;;;;;;5064170;28;20543;-93
2022/09/25 00:48:17;;;;;;;7.90;5.95;;;11.70;99.90;;;;;;5064282;28;20267;-93
2022/09/25 00:50:49;;;;;;;6.97;6.07;;;11.70;99.90;;;;;;5063642;28;20261;-93
2022/09/25 00:53:22;;;;;;;7.53;5.15;;;11.70;99.90;;;;;;5067116;28;20456;-94
2022/09/25 00:55:50;;;;;;;7.13;5.80;;;11.70;99.90;;;;;;5068393;28;20221;-94
2022/09/25 00:58:22;;;;;;;6.63;5.20;;;11.70;99.90;;;;;;5064116;28;20510;-94
2022/09/25 01:00:50;;;;;;;8.70;6.70;;;11.70;99.90;;;;;;5063864;28;20200;-93
2022/09/25 01:03:19;;;;;;;8.55;6.40;;;11.70;99.90;;;;;;5063795;28;20519;-93
2022/09/25 01:05:46;;;;;;;9.35;6.30;;;11.70;99.90;;;;;;5064849;28;20208;-93
2022/09/25 01:08:16;;;;;;;7.78;6.20;;;11.60;99.90;;;;;;5065413;28;20221;-93
2022/09/25 01:10:47;;;;;;;8.23;6.50;;;11.60;99.90;;;;;;5063713;28;20212;-93
2022/09/25 01:13:24;;;;;;;6.60;5.67;;;11.70;99.90;;;;;;5062887;28;20466;-93
2022/09/25 01:16:13;;;;;;;8.40;6.80;;;11.60;99.90;;;;;;5064018;28;20472;-94
2022/09/25 01:19:12;;;;;;;9.98;6.95;;;11.70;99.90;;;;;;5064066;28;20210;-93
2022/09/25 01:21:46;;;;;;;7.23;5.60;;;11.70;99.90;;;;;;5062831;28;20204;-93
2022/09/25 01:24:50;;;;;;;8.13;6.22;;;11.70;99.90;;;;;;5066209;28;20457;-93
2022/09/25 01:28:04;;;;;;;8.93;6.68;;;11.70;99.90;;;;;;5067469;28;20229;-93
2022/09/25 01:30:58;;;;;;;9.10;6.85;;;11.80;99.90;;;;;;5066953;28;20201;-93
2022/09/25 01:33:34;;;;;;;8.00;6.60;;;11.80;99.90;;;;;;5067116;28;20205;-93
2022/09/25 01:36:07;;;;;;;8.50;6.90;;;11.80;99.90;;;;;;5067197;28;20482;-94
2022/09/25 01:38:40;;;;;;;8.48;6.70;;;11.80;99.90;;;;;;5067332;28;20222;-93
2022/09/25 01:41:13;;;;;;;8.87;6.40;;;11.80;99.90;;;;;;5067283;28;20190;-93
2022/09/25 01:43:44;;;;;;;8.80;7.53;;;11.80;99.90;;;;;;5066830;28;20460;-93
2022/09/25 01:46:22;;;;;;;9.30;6.22;;;11.80;99.90;;;;;;5067313;28;20459;-93
2022/09/25 01:49:13;;;;;;;7.43;6.00;;;11.80;99.90;;;;;;5068008;28;20188;-93
2022/09/25 01:51:45;;;;;;;9.23;6.75;;;11.90;99.90;;;;;;5067149;28;20571;-93
2022/09/25 01:54:17;;;;;;;8.93;6.53;;;11.90;99.90;;;;;;5068312;28;20194;-92
2022/09/25 01:56:50;;;;;;;8.48;6.15;;;11.90;99.90;;;;;;5066862;28;20226;-93
2022/09/25 01:59:24;;;;;;;9.63;6.40;;;11.90;99.90;;;;;;5068342;28;20216;-93
2022/09/25 02:02:21;;;;;;;10.00;7.27;;;11.90;99.90;;;;;;5070437;28;20193;-93
2022/09/25 02:04:55;;;;;;;8.93;6.25;;;11.90;99.90;;;;;;5070027;28;20474;-93
2022/09/25 02:07:30;;;;;;;8.02;6.65;;;11.90;99.90;;;;;;5068461;28;20225;-94
2022/09/25 02:10:01;;;;;;;9.95;7.22;;;11.90;99.90;;;;;;5066461;28;20577;-93
2022/09/25 02:12:34;;;;;;;10.82;6.90;;;11.90;99.90;;;;;;5065894;28;20213;-93
2022/09/25 02:15:05;;;;;;;8.45;6.05;;;11.90;99.90;;;;;;5064941;28;20218;-93
2022/09/25 02:20:31;;;;;;;8.55;6.45;;;11.90;99.90;;;;;;5064494;28;20697;-93
2022/09/25 02:23:06;;;;;;;8.60;6.60;;;11.90;99.90;;;;;;5064592;28;20211;-94
2022/09/25 02:25:58;;;;;;;14.43;8.17;;;12.00;99.90;;;;;;5064218;28;20216;-93
2022/09/25 02:28:25;;;;;;;11.80;8.05;;;12.00;99.90;;;;;;5064311;28;20842;-93
2022/09/25 02:30:55;;;;;;;8.30;6.17;;;11.90;99.90;;;;;;5064418;28;20205;-93
2022/09/25 02:33:25;;;;;;;10.15;7.07;;;11.90;99.90;;;;;;5064127;28;20953;-93
2022/09/25 02:35:52;;;;;;;10.35;7.55;;;11.90;99.90;;;;;;5064657;28;20226;-93
2022/09/25 02:38:19;;;;;;;10.07;7.10;;;11.80;99.90;;;;;;5063345;28;20221;-93
2022/09/25 02:40:52;;;;;;;10.47;7.37;;;11.80;99.90;;;;;;5062979;28;20968;-93
2022/09/25 02:43:39;;;;;;;11.07;6.47;;;11.80;99.90;;;;;;5062985;28;20456;-94
2022/09/25 02:46:13;;;;;;;9.15;7.13;;;11.80;99.90;;;;;;5063730;28;20194;-93
2022/09/25 02:48:59;;;;;;;9.03;6.07;;;11.90;99.90;;;;;;5066317;28;20208;-93
2022/09/25 02:51:30;;;;;;;8.55;6.45;;;11.90;99.90;;;;;;5065138;28;20443;-93
2022/09/25 02:54:35;;;;;;;12.20;6.43;;;11.90;99.90;;;;;;5064731;28;20209;-93
2022/09/25 02:57:09;;;;;;;7.50;5.93;;;11.90;99.90;;;;;;5063950;28;20490;-93
2022/09/25 02:59:43;;;;;;;9.60;7.20;;;11.90;99.90;;;;;;5063859;28;20206;-93
2022/09/25 03:02:12;;;;;;;9.55;6.72;;;11.90;99.90;;;;;;5063840;28;20194;-93
2022/09/25 03:04:42;;;;;;;9.93;7.07;;;11.90;99.90;;;;;;5064164;28;20205;-93
2022/09/25 03:07:09;;;;;;;10.30;8.25;;;12.00;99.90;;;;;;5064121;28;20233;-93
2022/09/25 03:09:38;;;;;;;9.63;6.70;;;12.00;99.90;;;;;;5064262;28;20576;-93
2022/09/25 03:12:05;;;;;;;8.70;6.72;;;12.00;99.90;;;;;;5063814;28;20277;-93
2022/09/25 03:14:44;;;;;;;9.97;7.43;;;12.00;99.90;;;;;;5071393;28;20208;-94
2022/09/25 03:17:14;;;;;;;9.40;6.13;;;12.00;99.90;;;;;;5068014;28;20487;-93
2022/09/25 03:19:42;;;;;;;9.57;7.38;;;12.00;99.90;;;;;;5066316;28;20495;-93
2022/09/25 03:22:08;;;;;;;8.30;6.65;;;12.00;99.90;;;;;;5065022;28;20215;-94
2022/09/25 03:24:37;;;;;;;8.13;5.95;;;12.00;99.90;;;;;;5065394;28;20202;-94
2022/09/25 03:27:04;;;;;;;8.73;6.00;;;12.00;99.90;;;;;;5066347;28;20222;-93
2022/09/25 03:29:31;;;;;;;9.67;6.80;;;12.00;99.90;;;;;;5067629;28;20206;-93
2022/09/25 03:31:58;;;;;;;8.32;5.93;;;12.00;99.90;;;;;;5065673;28;20460;-94
2022/09/25 03:34:25;;;;;;;8.70;6.60;;;12.00;99.90;;;;;;5066381;28;20202;-93
2022/09/25 03:36:53;;;;;;;11.38;6.88;;;12.00;99.90;;;;;;5066963;28;20221;-93
2022/09/25 03:39:19;;;;;;;9.82;7.20;;;12.00;99.90;;;;;;5066768;28;20202;-93
2022/09/25 03:41:46;;;;;;;9.15;6.68;;;12.00;99.90;;;;;;5065165;28;20198;-93
2022/09/25 03:44:13;;;;;;;7.25;5.72;;;12.00;99.90;;;;;;5065445;28;20205;-94
2022/09/25 03:46:40;;;;;;;8.20;6.10;;;12.00;99.90;;;;;;5064576;28;20226;-93
2022/09/25 03:49:09;;;;;;;6.77;5.60;;;12.00;99.90;;;;;;5064994;28;20213;-93
2022/09/25 03:51:37;;;;;;;10.07;7.82;;;12.00;99.90;;;;;;5066238;28;20488;-94
2022/09/25 03:54:05;;;;;;;9.07;7.30;;;12.00;99.90;;;;;;5066327;28;20206;-94
2022/09/25 03:56:32;;;;;;;9.87;7.10;;;12.00;99.90;;;;;;5065222;28;20226;-93
2022/09/25 03:58:59;;;;;;;10.27;6.83;;;12.00;99.90;;;;;;5065915;28;20479;-94
2022/09/25 04:01:28;;;;;;;8.83;6.40;;;12.00;99.90;;;;;;5065880;28;20972;-94
2022/09/25 04:03:54;;;;;;;10.07;6.90;;;12.00;99.90;;;;;;5066121;28;20470;-94
2022/09/25 04:06:24;;;;;;;7.30;5.88;;;12.00;99.90;;;;;;5065827;28;20470;-94
2022/09/25 04:08:51;;;;;;;7.43;5.70;;;12.00;99.90;;;;;;5065174;28;20232;-94
2022/09/25 04:11:21;;;;;;;8.20;6.20;;;12.00;99.90;;;;;;5064828;28;20202;-93
2022/09/25 04:13:48;;;;;;;8.52;6.18;;;12.00;99.90;;;;;;5065876;28;20464;-94
2022/09/25 04:16:17;;;;;;;8.43;6.07;;;12.00;99.90;;;;;;5065656;28;20228;-94
2022/09/25 04:18:44;;;;;;;9.00;5.88;;;12.00;99.90;;;;;;5065812;28;20225;-94
2022/09/25 04:21:13;;;;;;;8.53;7.57;;;12.00;99.90;;;;;;5064659;28;20265;-94
2022/09/25 04:23:41;;;;;;;8.25;6.07;;;12.00;99.90;;;;;;5068996;28;20460;-94
2022/09/25 04:26:09;;;;;;;6.65;5.13;;;12.00;99.90;;;;;;5074632;28;20225;-94
2022/09/25 04:28:37;;;;;;;7.72;6.03;;;12.10;99.90;;;;;;5074526;28;20273;-94
2022/09/25 04:31:04;;;;;;;10.00;6.90;;;12.20;99.90;;;;;;5075236;28;20198;-94
2022/09/25 04:33:46;;;;;;;8.15;5.90;;;12.10;99.90;;;;;;5077448;28;20196;-93
2022/09/25 04:36:13;;;;;;;7.95;6.15;;;12.10;99.90;;;;;;5074650;28;20231;-95
2022/09/25 04:38:40;;;;;;;7.70;5.75;;;12.10;99.90;;;;;;5073757;28;20236;-94
2022/09/25 04:41:07;;;;;;;8.48;6.07;;;12.10;99.90;;;;;;5071797;28;20224;-96
2022/09/25 04:43:35;;;;;;;9.67;6.20;;;12.10;99.90;;;;;;5071087;28;20206;-94
2022/09/25 04:46:05;;;;;;;9.07;5.68;;;12.10;99.90;;;;;;5069668;28;20551;-94
2022/09/25 04:48:33;;;;;;;7.23;6.37;;;12.00;99.90;;;;;;5068226;28;20240;-93
2022/09/25 04:50:59;;;;;;;7.63;5.70;;;12.00;99.90;;;;;;5069083;28;20479;-95
2022/09/25 04:53:28;;;;;;;8.70;5.45;;;12.00;99.90;;;;;;5068862;28;20460;-94
2022/09/25 04:56:00;;;;;;;7.95;6.10;;;12.00;99.90;;;;;;5067813;28;20253;-95
2022/09/25 04:58:27;;;;;;;7.97;6.07;;;12.00;99.90;;;;;;5071156;28;20285;-94
2022/09/25 05:00:54;;;;;;;9.77;6.50;;;12.00;99.90;;;;;;5073665;28;20213;-95
2022/09/25 05:03:22;;;;;;;6.45;5.43;;;12.00;99.90;;;;;;5085776;22;20495;-68
2022/09/25 05:05:49;;;;;;;8.00;6.00;;;12.00;99.90;;;;;;5054517;28;20251;-68
2022/09/25 05:08:16;;;;;;;8.98;6.68;;;11.90;99.90;;;;;;5034592;28;20862;-68
2022/09/25 05:10:43;;;;;;;8.95;6.70;;;11.80;99.90;;;;;;5034625;28;20729;-68
2022/09/25 05:13:11;;;;;;;7.72;6.10;;;11.80;99.90;;;;;;5033741;28;20226;-68
2022/09/25 05:15:37;;;;;;;8.48;5.90;;;11.80;99.90;;;;;;5034485;28;20621;-68
2022/09/25 05:18:06;;;;;;;8.68;6.85;;;11.80;99.90;;;;;;5034287;28;20688;-68
2022/09/25 05:20:35;;;;;;;9.02;6.43;;;11.80;99.90;;;;;;5034507;28;20206;-68
2022/09/25 05:23:03;;;;;;;8.82;6.18;;;11.80;99.90;;;;;;5033696;28;20225;-68
2022/09/25 05:25:30;;;;;;;7.57;5.60;;;11.90;99.90;;;;;;5034539;28;20198;-68
2022/09/25 05:27:58;;;;;;;6.57;5.07;;;11.90;99.90;;;;;;5034038;28;20207;-68
2022/09/25 05:30:26;;;;;;;8.02;5.93;;;11.90;99.90;;;;;;5034067;28;20210;-68
2022/09/25 05:32:53;;;;;;;9.60;6.03;;;11.90;99.90;;;;;;5033573;28;20210;-68
2022/09/25 05:35:23;;;;;;;8.32;6.38;;;11.90;99.90;;;;;;5033829;28;20206;-68
2022/09/25 05:37:51;;;;;;;7.70;5.85;;;11.90;99.90;;;;;;5033757;28;20312;-68
2022/09/25 05:40:19;;;;;;;8.82;5.78;;;12.00;99.90;;;;;;5033295;28;20214;-68
2022/09/25 05:42:47;;;;;;;8.25;6.25;;;12.00;99.90;;;;;;5033028;28;20741;-68
2022/09/25 05:45:15;;;;;;;9.20;6.37;;;12.00;99.90;;;;;;5033804;28;20211;-68
2022/09/25 05:47:42;;;;;;;9.80;7.13;;;12.00;99.90;;;;;;5033969;28;20879;-68
2022/09/25 05:50:12;;;;;;;7.00;5.23;;;12.00;99.90;;;;;;5033770;28;20467;-69
2022/09/25 05:52:39;;;;;;;10.45;7.03;;;12.00;99.90;;;;;;5033429;28;20464;-69
2022/09/25 05:55:09;;;;;;;8.43;5.93;;;12.00;99.90;;;;;;5033482;28;20673;-68
2022/09/25 05:57:37;;;;;;;8.65;5.93;;;12.00;99.90;;;;;;5033787;28;20232;-68
2022/09/25 06:00:05;;;;;;;9.20;5.93;;;12.00;99.90;;;;;;5033601;28;20615;-68
2022/09/25 06:02:31;;;;;;;7.90;6.45;;;12.10;99.90;;;;;;5033136;28;20209;-68
2022/09/25 06:04:58;;;;;;;9.15;5.88;;;12.10;99.90;;;;;;5033535;28;20230;-68
2022/09/25 06:07:25;;;;;;;6.25;5.65;;;12.10;99.90;;;;;;5033450;28;20680;-68
2022/09/25 06:09:51;;;;;;;7.80;6.10;;;12.00;99.90;;;;;;5033109;28;20230;-68
2022/09/25 06:12:21;;;;;;;7.33;6.00;;;12.00;99.90;;;;;;5032528;28;20226;-68
2022/09/25 06:14:48;;;;;;;6.10;5.40;;;12.00;99.90;;;;;;5033227;28;20480;-68
2022/09/25 06:17:15;;;;;;;5.80;4.75;;;12.00;99.90;;;;;;5052471;22;20261;-66
2022/09/25 06:19:42;;;;;;;7.20;4.90;;;12.00;99.90;;;;;;5052880;28;20653;-67
2022/09/25 06:22:08;;;;;;;7.80;5.10;;;12.10;99.90;;;;;;5052682;28;20467;-66
2022/09/25 06:24:35;;;;;;;6.10;4.68;;;12.10;99.90;;;;;;5052666;28;20476;-67
2022/09/25 06:27:02;;;;;;;6.75;4.47;;;12.10;99.90;;;;;;5053200;28;20576;-67
2022/09/25 06:29:30;;;;;;;5.80;5.13;;;12.00;99.90;;;;;;5052971;28;20201;-67
2022/09/25 06:31:56;;;;;;;6.40;4.50;;;12.10;99.90;;;;;;5052353;28;20301;-66
2022/09/25 06:34:23;;;;;;;6.37;5.30;;;12.10;99.90;;;;;;5052817;28;20831;-67
2022/09/25 06:36:50;;;;;;;7.35;5.65;;;12.10;99.90;;;;;;5052797;28;20484;-67
2022/09/25 06:39:16;;;;;;;7.53;5.97;;;12.10;99.90;;;;;;5052858;28;20209;-66
2022/09/25 06:41:43;;;;;;;8.20;6.60;;;12.10;99.90;;;;;;5052167;28;20202;-67
2022/09/25 06:44:10;;;;;;;7.30;5.90;;;12.10;99.90;;;;;;5052762;28;20483;-66
2022/09/25 06:46:38;;;;;;;7.88;5.50;;;12.10;99.90;;;;;;5052623;28;20467;-66
2022/09/25 06:49:05;;;;;;;6.97;6.00;;;12.00;99.90;;;;;;5052794;28;20205;-67
2022/09/25 06:51:35;;;;;;;8.57;6.03;;;12.10;99.90;;;;;;5052126;28;20210;-67
2022/09/25 06:54:02;;;;;;;7.68;5.90;;;12.10;99.90;;;;;;5052627;28;20491;-67
2022/09/25 06:56:28;;;;;;;8.13;5.90;;;12.10;99.90;;;;;;5052744;28;20351;-67
2022/09/25 06:58:55;;;;;;;9.57;6.15;;;12.20;99.90;;;;;;5052552;28;20470;-67
2022/09/25 07:01:22;;;;;;;9.00;6.28;;;12.20;99.90;;;;;;5048446;28;20212;-66
2022/09/25 07:03:49;;;;;;;7.25;5.88;;;12.20;99.90;;;;;;5031322;28;20210;-67
2022/09/25 07:06:18;;;;;;;7.97;5.85;;;12.20;99.90;;;;;;5032257;28;20281;-66
2022/09/25 07:08:46;;;;;;;8.90;5.63;;;12.20;99.90;;;;;;5032154;28;20226;-67
2022/09/25 07:11:15;;;;;;;8.50;6.05;;;12.20;99.90;;;;;;5031893;28;20499;-67
2022/09/25 07:13:42;;;;;;;9.30;5.93;;;12.20;99.90;;;;;;5032035;28;20732;-66
2022/09/25 07:16:13;;;;;;;7.78;5.65;;;12.20;99.90;;;;;;5051876;28;20197;-67
2022/09/25 07:18:47;;;;;;;8.57;5.82;;;12.30;99.90;;;;;;5047527;28;20248;-67
2022/09/25 07:21:17;;;;;;;8.38;5.72;;;12.30;99.90;;;;;;5049193;28;20202;-66
2022/09/25 07:23:47;;;;;;;11.80;6.50;;;12.30;99.90;;;;;;5051482;28;20229;-67
2022/09/25 07:26:19;;;;;;;8.32;5.35;;;12.30;99.90;;;;;;5051515;28;20460;-66
2022/09/25 07:28:46;;;;;;;8.05;6.45;;;12.30;99.90;;;;;;5051130;28;20202;-67
2022/09/25 07:31:15;;;;;;;8.98;6.40;;;12.30;99.90;;;;;;5050741;28;20591;-66
2022/09/25 07:33:42;;;;;;;9.77;7.03;;;12.30;99.90;;;;;;5050796;28;20701;-66
2022/09/25 07:36:10;;;;;;;11.57;6.35;;;12.30;99.90;;;;;;5051381;28;20464;-67
2022/09/25 07:38:39;;;;;;;9.30;6.43;;;12.20;99.90;;;;;;5051003;28;20198;-67
2022/09/25 07:41:07;;;;;;;7.70;5.50;;;12.20;99.90;;;;;;5050729;28;20527;-67
2022/09/25 07:43:36;;;;;;;7.47;6.18;;;12.20;99.90;;;;;;5050778;28;20355;-66
2022/09/25 07:46:03;;;;;;;7.97;6.27;;;12.20;99.90;;;;;;5051321;28;20259;-67
2022/09/25 07:48:30;;;;;;;8.30;6.20;;;12.20;99.90;;;;;;5050681;28;20463;-67
2022/09/25 07:51:00;;;;;;;8.60;6.05;;;12.30;99.90;;;;;;5050025;28;20463;-67
2022/09/25 07:53:27;;;;;;;9.00;6.15;;;12.30;99.90;;;;;;5049711;28;20267;-67
2022/09/25 07:55:58;;;;;;;8.20;6.13;;;12.40;99.90;;;;;;5050255;28;20206;-66
2022/09/25 07:58:25;;;;;;;7.63;5.97;;;12.40;99.90;;;;;;5051047;28;20911;-67
2022/09/25 08:00:53;;;;;;;7.03;5.90;;;12.40;99.90;;;;;;5049197;28;20468;-67
2022/09/25 08:03:20;;;;;;;8.05;5.35;;;12.50;99.90;;;;;;5050306;28;20709;-66
2022/09/25 08:05:46;;;;;;;7.27;5.97;;;12.60;99.90;;;;;;5050760;28;20209;-66
2022/09/25 08:08:13;;;;;;;9.25;6.20;;;12.60;99.90;;;;;;5050819;28;20582;-67
2022/09/25 08:10:41;;;;;;;8.23;5.90;;;12.60;99.90;;;;;;5050438;28;20204;-67
2022/09/25 08:13:09;;;;;;;6.63;5.37;;;12.70;99.90;;;;;;5050365;28;20511;-67
2022/09/25 08:15:36;;;;;;;5.70;4.73;;;12.70;99.90;;;;;;5050906;28;20460;-67
2022/09/25 08:18:02;;;;;;;7.83;5.60;;;12.80;99.90;;;;;;5050187;28;20488;-66
2022/09/25 08:20:32;;;;;;;6.50;5.00;;;12.80;99.90;;;;;;5050368;28;20467;-67
2022/09/25 08:22:59;;;;;;;8.00;5.13;;;12.80;99.90;;;;;;5050432;28;20495;-67
2022/09/25 08:25:25;;;;;;;7.60;5.60;;;12.90;99.90;;;;;;5050580;28;20464;-67
2022/09/25 08:27:52;;;;;;;5.50;4.40;;;12.90;99.90;;;;;;5050801;28;20989;-66
2022/09/25 08:30:20;;;;;;;7.40;5.20;;;12.90;99.90;;;;;;5049892;28;21207;-67
2022/09/25 08:32:47;;;;;;;7.18;4.85;;;13.00;99.90;;;;;;5049516;28;20465;-67
2022/09/25 08:35:14;;;;;;;6.90;5.57;;;13.00;99.90;;;;;;5050667;28;20206;-66
2022/09/25 08:37:41;;;;;;;5.43;4.80;;;13.10;99.90;;;;;;5050018;28;20542;-66
2022/09/25 08:40:16;;;;;;;6.27;5.67;;;13.10;99.90;;;;;;5049628;28;20463;-66
2022/09/25 08:42:45;;;;;;;6.10;5.10;;;13.20;99.90;;;;;;5049836;28;20507;-67
2022/09/25 08:51:05;;;;;;;7.97;5.07;;;13.10;99.90;;;;;;5050647;28;20812;-67
2022/09/25 08:53:33;;;;;;;7.07;4.97;;;13.20;99.90;;;;;;5050181;28;20533;-67
2022/09/25 08:56:14;;;;;;;5.63;4.97;;;13.20;99.90;;;;;;5049939;28;20499;-67
2022/09/25 08:58:44;;;;;;;5.83;3.93;;;13.30;99.90;;;;;;5050184;28;20229;-67
2022/09/25 09:01:15;;;;;;;4.70;3.90;;;13.40;99.90;;;;;;5050397;28;20463;-66
2022/09/25 09:03:48;;;;;;;4.90;4.03;;;13.40;99.90;;;;;;5050488;28;20480;-67
2022/09/25 09:06:16;;;;;;;6.50;4.70;;;13.50;99.90;;;;;;5050378;28;20464;-66
2022/09/25 09:08:50;;;;;;;5.50;4.20;;;13.50;99.90;;;;;;5049748;28;20460;-66
2022/09/25 09:11:19;;;;;;;4.83;4.43;;;13.50;99.90;;;;;;5042453;28;20464;-67
2022/09/25 09:13:50;;;;;;;5.23;4.57;;;13.50;99.90;;;;;;5041081;28;20859;-66
2022/09/25 09:16:33;;;;;;;6.57;5.17;;;13.40;99.90;;;;;;5048401;28;20559;-66
2022/09/25 09:19:01;;;;;;;5.93;4.80;;;13.40;99.90;;;;;;5040800;28;20484;-66
2022/09/25 09:21:34;;;;;;;7.37;3.77;;;13.40;99.90;;;;;;5038516;28;20933;-66
2022/09/25 09:24:06;;;;;;;6.57;4.37;;;13.50;99.90;;;;;;5044164;28;20813;-66
2022/09/25 09:26:44;;;;;;;4.30;3.90;;;13.60;99.90;;;;;;5049789;28;20460;-66
2022/09/25 09:29:28;;;;;;;4.30;3.80;;;13.60;99.90;;;;;;5046865;28;20526;-67
2022/09/25 09:32:08;;;;;;;6.70;4.60;;;13.70;99.90;;;;;;5048421;28;20474;-67
2022/09/25 09:34:57;;;;;;;4.63;4.23;;;13.80;99.90;;;;;;5049741;28;20480;-66
2022/09/25 09:37:34;;;;;;;6.23;4.60;;;13.80;99.90;;;;;;5046432;28;20494;-66
2022/09/25 09:40:16;;;;;;;4.63;4.23;;;13.90;99.90;;;;;;5049750;28;20472;-67
2022/09/25 09:42:50;;;;;;;4.47;3.57;;;14.00;99.90;;;;;;5048677;28;20467;-64
2022/09/25 09:45:22;;;;;;;6.73;4.50;;;14.10;99.90;;;;;;5052819;28;20459;-65
2022/09/25 09:47:59;;;;;;;6.77;5.43;;;14.00;99.90;;;;;;5051361;28;20947;-64
2022/09/25 09:50:35;;;;;;;7.33;5.17;;;14.00;99.90;;;;;;5053322;28;20459;-65
2022/09/25 09:53:05;;;;;;;4.40;3.93;;;14.00;99.90;;;;;;5052507;28;20479;-65
2022/09/25 09:55:38;;;;;;;4.30;3.77;;;14.00;99.90;;;;;;5053194;28;20460;-64
2022/09/25 09:58:13;;;;;;;4.43;3.47;;;14.00;99.90;;;;;;5053171;28;20511;-64
2022/09/25 10:00:40;;;;;;;5.90;4.70;;;14.00;99.90;;;;;;5053135;28;20460;-65
2022/09/25 10:03:16;;;;;;;4.90;4.20;;;14.00;99.90;;;;;;5035816;28;20488;-65
2022/09/25 10:05:46;;;;;;;3.93;3.53;;;13.90;99.90;;;;;;5032772;28;20471;-64
2022/09/25 10:08:13;;;;;;;4.10;3.70;;;14.00;99.90;;;;;;5033000;28;20871;-65
2022/09/25 10:10:43;;;;;;;4.60;3.97;;;14.00;99.90;;;;;;5032687;28;20467;-65
2022/09/25 10:13:16;;;;;;;4.37;3.97;;;14.00;99.90;;;;;;5032514;28;20484;-64
2022/09/25 10:15:47;;;;;;;5.00;3.87;;;14.10;99.90;;;;;;5032690;28;20464;-65
2022/09/25 10:18:17;;;;;;;4.20;3.80;;;14.20;99.90;;;;;;5032846;28;20480;-65
2022/09/25 10:20:47;;;;;;;4.53;4.13;;;14.40;99.90;;;;;;5032624;28;20983;-64
2022/09/25 10:23:28;;;;;;;5.90;4.30;;;14.40;99.90;;;;;;5032307;28;20485;-65
2022/09/25 10:25:55;;;;;;;4.23;3.93;;;14.50;99.90;;;;;;5034796;28;20891;-64
2022/09/25 10:28:26;;;;;;;7.90;4.93;;;14.60;99.90;;;;;;5052241;28;20463;-65
2022/09/25 10:30:54;;;;;;;7.50;3.80;;;14.60;99.90;;;;;;5052540;28;20464;-64
2022/09/25 10:33:24;;;;;;;4.10;3.67;;;14.50;99.90;;;;;;5051643;28;20484;-64
2022/09/25 10:35:53;;;;;;;4.77;3.83;;;14.40;99.90;;;;;;5052114;28;20661;-64
2022/09/25 10:38:30;;;;;;;6.97;4.77;;;14.40;99.90;;;;;;5052156;28;20593;-64
2022/09/25 10:41:01;;;;;;;4.63;3.80;;;14.30;99.90;;;;;;5052380;28;20571;-64
2022/09/25 10:43:28;;;;;;;5.17;3.77;;;14.20;99.90;;;;;;5051820;28;20494;-64
2022/09/25 10:46:06;;;;;;;4.50;4.10;;;14.20;99.90;;;;;;5051808;28;20464;-67
2022/09/25 10:51:31;;;;;;;6.60;4.80;;;14.10;99.90;;;;;;5014665;28;20565;-65
2022/09/25 10:54:12;;;;;;;4.60;4.10;;;14.10;99.90;;;;;;5052320;28;20823;-65
2022/09/25 10:56:39;;;;;;;6.13;4.90;;;14.10;99.90;;;;;;5050326;28;20456;-64
2022/09/25 10:59:17;;;;;;;10.70;5.13;;;14.10;99.90;;;;;;5051998;28;20538;-65
2022/09/25 11:01:44;;;;;;;4.50;4.10;;;14.10;99.90;;;;;;5051572;28;20467;-65
2022/09/25 11:04:16;;;;;;;5.97;4.17;;;14.10;99.90;;;;;;5051986;28;20488;-65
2022/09/25 11:06:46;;;;;;;4.60;4.07;;;14.10;99.90;;;;;;5052021;28;20467;-65
2022/09/25 11:09:16;;;;;;;4.00;3.60;;;14.10;99.90;;;;;;5052031;28;20467;-65
2022/09/25 11:11:45;;;;;;;5.53;3.93;;;14.00;99.90;;;;;;5051489;28;20460;-65
2022/09/25 11:14:21;;;;;;;5.10;4.60;;;14.00;99.90;;;;;;5051860;28;20576;-65
2022/09/25 11:16:51;;;;;;;4.63;4.17;;;14.00;99.90;;;;;;5051951;28;20509;-65
2022/09/25 11:19:25;;;;;;;4.80;4.40;;;13.90;99.90;;;;;;5051278;28;20483;-65
2022/09/25 11:22:15;;;;;;;5.13;4.13;;;13.90;99.90;;;;;;5051199;28;20495;-65
2022/09/25 11:24:53;;;;;;;5.00;4.50;;;13.90;99.90;;;;;;5045479;28;20483;-65
2022/09/25 11:27:24;;;;;;;5.07;4.67;;;13.80;99.90;;;;;;5051617;28;20467;-64
2022/09/25 11:30:01;;;;;;;4.70;4.27;;;13.80;99.90;;;;;;5050188;28;20456;-65
2022/09/25 11:32:35;;;;;;;4.33;3.93;;;13.80;99.90;;;;;;5051005;28;20797;-65
2022/09/25 11:35:24;;;;;;;5.03;4.10;;;13.80;99.90;;;;;;5051417;28;20838;-64
2022/09/25 11:38:01;;;;;;;5.13;4.07;;;13.70;99.90;;;;;;5051240;28;21159;-65
2022/09/25 11:43:34;;;;;;;5.03;3.90;;;13.70;99.90;;;;;;5050847;28;20510;-65
2022/09/25 11:46:06;;;;;;;6.03;4.80;;;13.80;99.90;;;;;;5051222;28;20459;-65
2022/09/25 11:48:41;;;;;;;5.13;4.30;;;13.70;99.90;;;;;;5051039;28;20460;-65
2022/09/25 11:51:18;;;;;;;8.30;4.73;;;13.70;99.90;;;;;;5051219;28;20459;-64
2022/09/25 11:53:54;;;;;;;7.33;5.40;;;13.70;99.90;;;;;;5051056;28;20900;-65
2022/09/25 11:56:30;;;;;;;8.77;7.70;;;13.70;99.90;;;;;;5051113;28;20471;-64
2022/09/25 11:59:22;;;;;;;10.30;6.97;;;13.60;99.90;;;;;;5051035;28;21010;-65
2022/09/25 12:01:54;;;;;;;8.00;7.10;;;13.50;99.90;;;;;;5050301;28;20468;-65
2022/09/25 12:04:44;;;;;;;8.37;7.43;;;13.50;99.90;;;;;;5051151;28;20490;-64
2022/09/25 12:07:40;;;;;;;6.73;6.00;;;13.50;99.90;;;;;;5046876;28;21005;-65
2022/09/25 12:10:27;;;;;;;8.80;7.40;;;13.50;99.90;;;;;;5050991;28;20460;-65
2022/09/25 12:13:03;;;;;;;10.30;8.97;;;13.50;99.90;;;;;;5050205;28;20464;-65
2022/09/25 12:15:47;;;;;;;9.90;8.00;;;13.60;99.90;;;;;;5051044;28;20463;-64
2022/09/25 12:18:26;;;;;;;10.93;8.33;;;13.60;99.90;;;;;;5100813;22;20498;-94
2022/09/25 12:20:59;;;;;;;9.43;8.33;;;13.60;99.90;;;;;;5074641;28;20444;-94
2022/09/25 12:23:32;;;;;;;13.20;8.67;;;13.70;99.90;;;;;;5070152;28;20455;-94
2022/09/25 12:26:19;;;;;;;12.33;7.40;;;13.70;99.90;;;;;;5073041;28;20531;-93
2022/09/25 12:29:13;;;;;;;8.50;7.23;;;13.80;99.90;;;;;;5073178;28;20480;-94
2022/09/25 12:31:52;;;;;;;9.00;7.17;;;13.90;99.90;;;;;;5070469;28;21060;-94
2022/09/25 12:34:37;;;;;;;11.73;8.80;;;13.90;99.90;;;;;;5067561;28;20436;-94
2022/09/25 12:37:14;;;;;;;11.37;8.07;;;14.10;99.90;;;;;;5073816;28;20484;-95
2022/09/25 12:39:46;;;;;;;9.83;8.23;;;14.30;99.90;;;;;;5064035;28;20488;-95
2022/09/25 12:42:19;;;;;;;10.37;8.13;;;14.30;99.90;;;;;;5066153;28;20452;-94
2022/09/25 12:44:51;;;;;;;10.17;7.50;;;14.40;99.90;;;;;;5081898;22;20995;-68
2022/09/25 12:47:26;;;;;;;13.73;7.70;;;14.50;99.90;;;;;;5042339;28;20456;-68
2022/09/25 12:49:59;;;;;;;9.53;7.03;;;14.60;99.90;;;;;;5049277;28;20463;-68
2022/09/25 12:52:30;;;;;;;10.47;7.87;;;14.60;99.90;;;;;;5049157;28;20509;-67
2022/09/25 12:55:04;;;;;;;9.30;8.40;;;14.60;99.90;;;;;;5048510;28;20991;-68
2022/09/25 12:57:39;;;;;;;14.27;9.40;;;14.60;99.90;;;;;;5048994;28;20510;-68
2022/09/25 13:00:13;;;;;;;7.80;7.00;;;14.60;99.90;;;;;;5049598;28;20479;-68
2022/09/25 13:02:47;;;;;;;11.60;8.40;;;14.50;99.90;;;;;;5046933;28;20537;-68
2022/09/25 13:05:19;;;;;;;9.20;7.83;;;14.50;99.90;;;;;;5049095;28;20507;-68
2022/09/25 13:07:53;;;;;;;9.47;7.70;;;14.60;99.90;;;;;;5050150;28;20464;-68
2022/09/25 13:10:26;;;;;;;8.87;7.80;;;14.50;99.90;;;;;;5050159;28;20547;-68
2022/09/25 13:12:57;;;;;;;9.00;7.23;;;14.60;99.90;;;;;;5048767;28;20460;-68
2022/09/25 13:15:27;;;;;;;9.60;7.77;;;14.60;99.90;;;;;;5049800;28;20463;-68
2022/09/25 13:17:55;;;;;;;14.43;8.33;;;14.70;99.90;;;;;;5050473;28;20516;-68
2022/09/25 13:20:50;;;;;;;9.33;7.73;;;14.70;99.90;;;;;;5051004;28;20464;-68
2022/09/25 13:23:28;;;;;;;11.23;7.93;;;14.70;99.90;;;;;;5033218;28;21011;-68